createdAt,value
2022-11-16T00:03:34.157Z,17.77
2022-11-16T00:06:03.667Z,18.23
2022-11-16T00:08:32.890Z,19.38
2022-11-16T00:11:12.683Z,18.65
2022-11-16T00:13:40.782Z,19.65
2022-11-16T00:16:08.544Z,21.02
2022-11-16T00:18:35.695Z,16.52
2022-11-16T00:21:05.501Z,21.67
2022-11-16T00:23:32.682Z,19.55
2022-11-16T00:26:07.551Z,17.67
2022-11-16T00:28:35.072Z,17.25
2022-11-16T00:31:04.451Z,20.50
2022-11-16T00:33:31.425Z,18.37
2022-11-16T00:35:58.174Z,16.25
2022-11-16T00:38:24.979Z,19.77
2022-11-16T00:40:51.639Z,15.50
2022-11-16T00:43:18.398Z,21.02
2022-11-16T00:45:45.374Z,18.45
2022-11-16T00:48:12.816Z,18.33
2022-11-16T00:50:40.027Z,17.08
2022-11-16T00:53:07.562Z,17.48
2022-11-16T00:55:35.002Z,17.27
2022-11-16T00:58:01.701Z,19.17
2022-11-16T01:00:28.431Z,17.60
2022-11-16T01:02:55.194Z,18.55
2022-11-16T01:05:22.695Z,18.98
2022-11-16T01:07:50.604Z,18.42
2022-11-16T01:10:20.764Z,18.95
2022-11-16T01:12:49.232Z,18.75
2022-11-16T01:15:17.907Z,21.63
2022-11-16T01:17:44.979Z,19.88
2022-11-16T01:20:20.059Z,20.33
2022-11-16T01:22:47.029Z,23.75
2022-11-16T01:25:15.128Z,20.38
2022-11-16T01:27:43.001Z,24.98
2022-11-16T01:30:12.874Z,23.55
2022-11-16T01:32:39.811Z,20.52
2022-11-16T01:35:07.057Z,25.63
2022-11-16T01:37:34.008Z,25.27
2022-11-16T01:40:00.860Z,27.17
2022-11-16T01:42:30.057Z,22.90
2022-11-16T01:45:15.880Z,27.15
2022-11-16T01:47:42.871Z,27.08
2022-11-16T01:50:13.315Z,25.48
2022-11-16T01:52:46.341Z,23.98
2022-11-16T01:55:13.527Z,22.30
2022-11-16T01:57:43.963Z,29.75
2022-11-16T02:00:13.164Z,23.17
2022-11-16T02:02:40.006Z,26.03
2022-11-16T02:05:07.700Z,29.35
2022-11-16T02:08:48.598Z,29.98
2022-11-16T02:11:27.141Z,24.08
2022-11-16T02:14:12.068Z,33.63
2022-11-16T02:16:51.894Z,29.92
2022-11-16T02:19:39.821Z,27.75
2022-11-16T02:22:48.062Z,28.48
2022-11-16T02:25:29.683Z,29.13
2022-11-16T02:28:11.411Z,27.95
2022-11-16T02:30:44.413Z,27.40
2022-11-16T02:33:16.960Z,24.17
2022-11-16T02:35:53.879Z,32.53
2022-11-16T02:38:25.979Z,29.60
2022-11-16T02:41:00.325Z,26.63
2022-11-16T02:43:37.881Z,28.45
2022-11-16T02:46:10.770Z,30.58
2022-11-16T02:48:42.416Z,29.75
2022-11-16T02:51:10.419Z,36.15
2022-11-16T02:53:42.324Z,31.38
2022-11-16T02:56:13.672Z,31.85
2022-11-16T02:58:40.557Z,31.35
2022-11-16T03:01:18.661Z,36.58
2022-11-16T03:04:01.655Z,29.65
2022-11-16T03:06:32.023Z,29.40
2022-11-16T03:09:10.324Z,27.10
2022-11-16T03:12:01.338Z,27.75
2022-11-16T03:14:54.933Z,30.23
2022-11-16T03:17:50.104Z,27.60
2022-11-16T03:20:22.604Z,28.65
2022-11-16T03:22:57.321Z,31.05
2022-11-16T03:25:26.990Z,28.50
2022-11-16T03:28:02.255Z,28.20
2022-11-16T03:30:33.739Z,27.67
2022-11-16T03:33:31.436Z,27.27
2022-11-16T03:36:09.542Z,25.77
2022-11-16T03:38:39.379Z,23.48
2022-11-16T03:41:08.929Z,28.38
2022-11-16T03:43:38.195Z,21.10
2022-11-16T03:46:05.868Z,25.60
2022-11-16T03:48:37.402Z,29.42
2022-11-16T03:51:05.080Z,25.13
2022-11-16T03:53:32.022Z,24.13
2022-11-16T03:55:58.775Z,25.05
2022-11-16T03:58:25.497Z,24.17
2022-11-16T04:00:52.922Z,22.98
2022-11-16T04:03:20.330Z,26.00
2022-11-16T04:06:08.609Z,23.73
2022-11-16T04:08:53.874Z,25.00
2022-11-16T04:11:40.533Z,27.02
2022-11-16T04:14:32.328Z,25.23
2022-11-16T04:17:17.689Z,24.80
2022-11-16T04:20:03.192Z,23.48
2022-11-16T04:22:57.003Z,22.02
2022-11-16T04:25:27.219Z,21.30
2022-11-16T04:28:13.581Z,23.92
2022-11-16T04:31:10.659Z,24.67
2022-11-16T04:33:56.836Z,25.60
2022-11-16T04:36:42.589Z,27.90
2022-11-16T04:39:09.481Z,28.17
2022-11-16T04:41:54.817Z,27.38
2022-11-16T04:44:25.937Z,26.65
2022-11-16T04:47:07.379Z,27.40
2022-11-16T04:49:34.101Z,29.67
2022-11-16T04:52:00.972Z,28.13
2022-11-16T04:54:27.713Z,32.17
2022-11-16T04:56:54.492Z,32.70
2022-11-16T04:59:21.210Z,29.48
2022-11-16T05:02:06.710Z,27.40
2022-11-16T05:04:33.425Z,36.33
2022-11-16T05:07:00.194Z,29.92
2022-11-16T05:09:26.898Z,28.67
2022-11-16T05:11:53.677Z,27.52
2022-11-16T05:14:20.375Z,25.52
2022-11-16T05:16:47.092Z,25.08
2022-11-16T05:19:32.441Z,24.70
2022-11-16T05:21:59.198Z,26.13
2022-11-16T05:24:35.154Z,27.67
2022-11-16T05:27:04.797Z,29.10
2022-11-16T05:29:31.804Z,29.75
2022-11-16T05:31:59.931Z,29.10
2022-11-16T05:34:27.141Z,27.58
2022-11-16T05:36:54.442Z,34.00
2022-11-16T05:39:21.252Z,27.63
2022-11-16T05:41:48.368Z,30.88
2022-11-16T05:44:15.910Z,29.40
2022-11-16T05:46:43.519Z,30.42
2022-11-16T05:49:12.037Z,30.92
2022-11-16T05:51:41.125Z,34.78
2022-11-16T05:54:08.807Z,32.60
2022-11-16T05:56:35.591Z,32.33
2022-11-16T05:59:02.499Z,34.28
2022-11-16T06:01:29.340Z,36.60
2022-11-16T06:03:58.882Z,28.02
2022-11-16T06:06:25.777Z,28.38
2022-11-16T06:08:52.523Z,30.08
2022-11-16T06:11:19.442Z,30.48
2022-11-16T06:13:46.235Z,28.83
2022-11-16T06:16:13.726Z,28.33
2022-11-16T06:18:42.433Z,35.20
2022-11-16T06:21:10.924Z,35.47
2022-11-16T06:23:37.655Z,28.45
2022-11-16T06:28:32.787Z,29.90
2022-11-16T06:30:59.993Z,28.15
2022-11-16T06:33:30.810Z,29.67
2022-11-16T06:36:00.304Z,42.17
2022-11-16T06:38:27.472Z,29.80
2022-11-16T06:40:57.121Z,29.15
2022-11-16T06:43:25.333Z,28.48
2022-11-16T06:45:54.043Z,25.85
2022-11-16T06:48:21.696Z,25.92
2022-11-16T06:50:50.000Z,24.60
2022-11-16T06:53:17.414Z,23.80
2022-11-16T06:55:44.246Z,29.35
2022-11-16T06:58:11.300Z,25.33
2022-11-16T07:00:38.089Z,28.25
2022-11-16T07:03:05.205Z,26.52
2022-11-16T07:05:32.396Z,25.23
2022-11-16T07:07:59.641Z,28.85
2022-11-16T07:10:26.853Z,28.83
2022-11-16T07:12:53.607Z,28.98
2022-11-16T07:15:20.807Z,27.75
2022-11-16T07:17:47.823Z,24.23
2022-11-16T07:20:14.588Z,25.98
2022-11-16T07:22:41.383Z,24.92
2022-11-16T07:25:08.751Z,27.27
2022-11-16T07:27:35.462Z,27.98
2022-11-16T07:30:02.379Z,22.70
2022-11-16T07:32:31.715Z,22.05
2022-11-16T07:34:59.652Z,28.08
2022-11-16T07:37:26.801Z,23.17
2022-11-16T07:39:53.576Z,23.63
2022-11-16T07:42:20.475Z,25.27
2022-11-16T07:44:47.262Z,20.67
2022-11-16T07:47:13.974Z,22.27
2022-11-16T07:49:40.679Z,19.73
2022-11-16T07:52:11.090Z,19.98
2022-11-16T07:54:37.968Z,18.25
2022-11-16T07:57:04.990Z,20.23
2022-11-16T07:59:31.691Z,15.65
2022-11-16T08:01:59.469Z,18.08
2022-11-16T08:04:26.397Z,17.35
2022-11-16T08:06:53.356Z,15.48
2022-11-16T08:09:20.198Z,18.92
2022-11-16T08:11:47.352Z,16.30
2022-11-16T08:14:15.648Z,20.05
2022-11-16T08:16:42.396Z,17.85
2022-11-16T08:19:09.295Z,15.70
2022-11-16T08:21:36.034Z,15.80
2022-11-16T08:24:03.342Z,15.55
2022-11-16T08:26:30.202Z,18.25
2022-11-16T08:28:57.458Z,16.63
2022-11-16T08:31:27.465Z,14.65
2022-11-16T08:36:21.486Z,14.10
2022-11-16T08:38:50.333Z,16.75
2022-11-16T08:41:18.551Z,15.38
2022-11-16T08:43:47.488Z,15.82
2022-11-16T08:46:15.078Z,17.83
2022-11-16T08:48:42.330Z,16.85
2022-11-16T08:51:20.514Z,17.27
2022-11-16T08:53:49.591Z,17.33
2022-11-16T08:56:18.764Z,17.58
2022-11-16T08:58:52.494Z,16.20
2022-11-16T09:01:25.157Z,17.33
2022-11-16T09:03:53.300Z,18.45
2022-11-16T09:06:20.472Z,15.02
2022-11-16T09:08:47.530Z,13.10
2022-11-16T09:11:17.239Z,13.43
2022-11-16T09:13:46.032Z,15.60
2022-11-16T09:16:15.947Z,14.32
2022-11-16T09:18:43.991Z,14.10
2022-11-16T09:21:11.066Z,10.73
2022-11-16T09:23:37.852Z,15.20
2022-11-16T09:26:06.261Z,16.42
2022-11-16T09:28:33.561Z,15.13
2022-11-16T09:31:04.402Z,13.48
2022-11-16T09:33:31.925Z,15.57
2022-11-16T09:36:07.365Z,16.17
2022-11-16T09:39:14.001Z,19.58
2022-11-16T09:42:00.640Z,16.63
2022-11-16T09:44:41.554Z,17.23
2022-11-16T09:47:18.049Z,16.73
2022-11-16T09:49:53.559Z,18.92
2022-11-16T09:52:41.365Z,26.25
2022-11-16T09:55:24.727Z,21.60
2022-11-16T09:57:55.895Z,20.75
2022-11-16T10:00:23.907Z,24.02
2022-11-16T10:02:58.272Z,25.38
2022-11-16T10:05:37.664Z,26.92
2022-11-16T10:08:14.717Z,25.88
2022-11-16T10:11:23.159Z,26.17
2022-11-16T10:13:58.852Z,26.05
2022-11-16T10:16:35.655Z,25.63
2022-11-16T10:19:30.849Z,26.30
2022-11-16T10:22:04.629Z,25.80
2022-11-16T10:24:53.737Z,25.20
2022-11-16T10:27:27.708Z,25.13
2022-11-16T10:30:02.353Z,27.23
2022-11-16T10:32:37.366Z,25.13
2022-11-16T10:35:13.003Z,24.40
2022-11-16T10:37:45.802Z,22.27
2022-11-16T10:40:17.063Z,23.52
2022-11-16T10:42:46.922Z,22.85
2022-11-16T10:45:22.074Z,25.85
2022-11-16T10:48:11.519Z,26.13
2022-11-16T10:50:44.135Z,25.27
2022-11-16T10:53:16.270Z,26.55
2022-11-16T10:55:43.006Z,24.98
2022-11-16T10:58:09.800Z,26.80
2022-11-16T11:00:42.683Z,23.70
2022-11-16T11:03:10.978Z,22.25
2022-11-16T11:05:48.260Z,25.50
2022-11-16T11:08:26.125Z,25.40
2022-11-16T11:11:24.696Z,25.85
2022-11-16T11:14:09.575Z,23.60
2022-11-16T11:16:36.475Z,22.95
2022-11-16T11:19:29.015Z,23.58
2022-11-16T11:21:58.354Z,26.95
2022-11-16T11:24:44.324Z,24.48
2022-11-16T11:27:12.440Z,21.95
2022-11-16T11:29:42.651Z,23.58
2022-11-16T11:32:24.143Z,25.67
2022-11-16T11:34:54.077Z,24.65
2022-11-16T11:37:26.204Z,19.60
2022-11-16T11:40:22.463Z,26.30
2022-11-16T11:42:58.567Z,23.45
2022-11-16T11:45:32.452Z,25.88
2022-11-16T11:48:32.952Z,20.42
2022-11-16T11:51:10.864Z,25.75
2022-11-16T11:53:43.613Z,21.30
2022-11-16T11:56:12.504Z,23.42
2022-11-16T11:58:41.174Z,21.95
2022-11-16T12:01:22.191Z,20.70
2022-11-16T12:04:13.604Z,24.80
2022-11-16T12:07:09.556Z,25.35
2022-11-16T12:09:46.503Z,22.48
2022-11-16T12:12:15.931Z,24.83
2022-11-16T12:15:08.080Z,24.92
2022-11-16T12:18:06.525Z,23.48
2022-11-16T12:20:42.807Z,27.20
2022-11-16T12:23:35.490Z,24.75
2022-11-16T12:26:59.663Z,26.13
2022-11-16T12:29:40.463Z,25.17
2022-11-16T12:32:31.513Z,23.13
2022-11-16T12:35:16.826Z,24.60
2022-11-16T12:38:09.895Z,25.60
2022-11-16T12:41:21.914Z,23.40
2022-11-16T12:44:05.657Z,20.35
2022-11-16T12:46:50.814Z,20.23
2022-11-16T12:50:00.295Z,22.00
2022-11-16T12:53:11.435Z,23.55
2022-11-16T12:55:49.385Z,23.55
2022-11-16T12:58:47.284Z,21.42
2022-11-16T13:01:43.284Z,25.75
2022-11-16T13:04:24.703Z,22.48
2022-11-16T13:07:11.387Z,23.77
2022-11-16T13:09:46.473Z,23.08
2022-11-16T13:12:17.332Z,22.65
2022-11-16T13:14:49.040Z,21.75
2022-11-16T13:17:20.633Z,22.55
2022-11-16T13:20:02.546Z,20.42
2022-11-16T13:22:32.233Z,21.08
2022-11-16T13:25:24.812Z,20.25
2022-11-16T13:28:00.532Z,20.38
2022-11-16T13:30:36.613Z,18.50
2022-11-16T13:33:51.237Z,25.10
2022-11-16T13:36:43.588Z,21.83
2022-11-16T13:39:18.695Z,22.65
2022-11-16T13:42:07.216Z,20.65
2022-11-16T13:44:34.994Z,21.02
2022-11-16T13:47:07.108Z,22.27
2022-11-16T13:49:49.425Z,20.58
2022-11-16T13:52:23.863Z,23.27
2022-11-16T13:54:55.679Z,22.02
2022-11-16T13:57:30.069Z,21.98
2022-11-16T14:00:02.914Z,18.95
2022-11-16T14:02:36.476Z,24.02
2022-11-16T14:05:13.133Z,21.42
2022-11-16T14:07:44.945Z,22.17
2022-11-16T14:10:32.109Z,20.55
2022-11-16T14:13:04.548Z,18.02
2022-11-16T14:15:38.938Z,20.02
2022-11-16T14:18:09.390Z,18.58
2022-11-16T14:20:54.760Z,19.83
2022-11-16T14:23:47.158Z,19.50
2022-11-16T14:26:35.267Z,15.35
2022-11-16T14:29:14.376Z,20.17
2022-11-16T14:31:48.795Z,18.17
2022-11-16T14:34:32.831Z,15.73
2022-11-16T14:37:00.693Z,17.90
2022-11-16T14:39:32.043Z,14.30
2022-11-16T14:42:06.036Z,14.45
2022-11-16T14:44:39.146Z,18.08
2022-11-16T14:47:22.317Z,16.65
2022-11-16T14:49:49.773Z,15.27
2022-11-16T14:52:20.331Z,15.95
2022-11-16T14:54:54.000Z,19.85
2022-11-16T14:57:23.453Z,17.42
2022-11-16T15:00:09.023Z,19.55
2022-11-16T15:02:36.466Z,16.60
2022-11-16T15:05:03.408Z,17.10
2022-11-16T15:07:30.716Z,17.02
2022-11-16T15:10:00.294Z,19.10
2022-11-16T15:12:42.764Z,15.57
2022-11-16T15:15:17.018Z,15.85
2022-11-16T15:17:46.992Z,16.45
2022-11-16T15:20:13.676Z,18.95
2022-11-16T15:22:43.768Z,16.55
2022-11-16T15:27:59.016Z,16.33
2022-11-16T15:30:27.740Z,17.90
2022-11-16T15:32:54.992Z,14.02
2022-11-16T15:35:29.653Z,20.10
2022-11-16T15:38:02.645Z,19.75
2022-11-16T15:40:29.871Z,17.40
2022-11-16T15:43:00.673Z,15.35
2022-11-16T15:45:28.451Z,15.52
2022-11-16T15:47:58.971Z,14.52
2022-11-16T15:50:25.998Z,17.17
2022-11-16T15:52:55.501Z,16.35
2022-11-16T15:55:40.756Z,16.67
2022-11-16T15:58:26.774Z,15.63
2022-11-16T16:00:54.837Z,16.25
2022-11-16T16:03:26.944Z,17.98
2022-11-16T16:05:54.953Z,16.75
2022-11-16T16:08:39.377Z,18.20
2022-11-16T16:11:27.371Z,17.02
2022-11-16T16:14:02.745Z,16.45
2022-11-16T16:16:37.813Z,16.60
2022-11-16T16:19:23.759Z,15.00
2022-11-16T16:21:50.823Z,16.73
2022-11-16T16:24:39.004Z,14.93
2022-11-16T16:27:27.001Z,16.08
2022-11-16T16:29:56.009Z,18.15
2022-11-16T16:32:34.870Z,15.55
2022-11-16T16:35:07.284Z,16.83
2022-11-16T16:37:36.181Z,22.80
2022-11-16T16:40:03.063Z,18.58
2022-11-16T16:42:37.723Z,20.20
2022-11-16T16:45:04.915Z,18.25
2022-11-16T16:47:33.696Z,20.52
2022-11-16T16:50:01.778Z,21.00
2022-11-16T16:52:29.177Z,21.45
2022-11-16T16:54:56.084Z,18.48
2022-11-16T16:57:23.152Z,18.42
2022-11-16T16:59:50.398Z,21.73
2022-11-16T17:02:17.578Z,16.52
2022-11-16T17:04:46.626Z,19.83
2022-11-16T17:07:13.586Z,17.33
2022-11-16T17:09:41.022Z,17.95
2022-11-16T17:12:08.785Z,16.00
2022-11-16T17:14:36.105Z,17.80
2022-11-16T17:17:04.811Z,19.02
2022-11-16T17:19:31.893Z,17.58
2022-11-16T17:21:59.910Z,17.08
2022-11-16T17:24:30.753Z,15.50
2022-11-16T17:26:58.170Z,14.48
2022-11-16T17:29:25.767Z,14.10
2022-11-16T17:31:53.813Z,14.50
2022-11-16T17:34:21.151Z,16.35
2022-11-16T17:36:48.203Z,15.85
2022-11-16T17:39:16.733Z,17.77
2022-11-16T17:41:48.838Z,15.50
2022-11-16T17:44:21.665Z,19.05
2022-11-16T17:46:51.783Z,17.10
2022-11-16T17:49:20.772Z,15.30
2022-11-16T17:51:48.171Z,13.98
2022-11-16T17:54:15.546Z,17.30
2022-11-16T17:56:42.917Z,15.13
2022-11-16T17:59:10.132Z,11.65
2022-11-16T18:01:37.375Z,12.20
2022-11-16T18:04:05.332Z,13.15
2022-11-16T18:06:33.381Z,15.63
2022-11-16T18:09:01.003Z,14.73
2022-11-16T18:11:28.980Z,12.32
2022-11-16T18:14:01.202Z,12.63
2022-11-16T18:16:33.314Z,11.13
2022-11-16T18:19:07.485Z,12.10
2022-11-16T18:21:44.581Z,11.82
2022-11-16T18:24:14.420Z,13.73
2022-11-16T18:26:43.001Z,12.75
2022-11-16T18:29:16.522Z,14.25
2022-11-16T18:31:44.068Z,12.18
2022-11-16T18:34:16.600Z,12.95
2022-11-16T18:36:49.398Z,12.65
2022-11-16T18:39:18.356Z,17.02
2022-11-16T18:41:54.559Z,26.27
2022-11-16T18:44:23.083Z,20.92
2022-11-16T18:46:50.901Z,10.80
2022-11-16T18:49:18.615Z,16.05
2022-11-16T18:51:46.042Z,13.85
2022-11-16T18:54:13.493Z,13.45
2022-11-16T18:56:41.136Z,9.07
2022-11-16T18:59:08.732Z,14.48
2022-11-16T19:01:40.404Z,10.60
2022-11-16T19:04:08.935Z,10.98
2022-11-16T19:06:35.983Z,10.95
2022-11-16T19:09:05.505Z,12.65
2022-11-16T19:11:34.683Z,12.70
2022-11-16T19:14:05.318Z,12.32
2022-11-16T19:16:33.172Z,13.13
2022-11-16T19:19:03.259Z,13.68
2022-11-16T19:21:31.138Z,13.35
2022-11-16T19:24:00.203Z,13.48
2022-11-16T19:26:29.074Z,13.70
2022-11-16T19:28:56.918Z,13.30
2022-11-16T19:31:29.701Z,20.52
2022-11-16T19:34:02.768Z,17.40
2022-11-16T19:36:32.249Z,15.80
2022-11-16T19:38:59.639Z,14.18
2022-11-16T19:41:28.873Z,16.80
2022-11-16T19:44:00.728Z,15.32
2022-11-16T19:46:30.735Z,16.27
2022-11-16T19:48:59.861Z,12.57
2022-11-16T19:51:30.206Z,16.93
2022-11-16T19:53:58.893Z,15.50
2022-11-16T19:56:27.634Z,19.50
2022-11-16T19:58:55.259Z,15.07
2022-11-16T20:01:28.239Z,39.92
2022-11-16T20:03:59.017Z,12.43
2022-11-16T20:06:29.590Z,20.23
2022-11-16T20:09:01.193Z,15.85
2022-11-16T20:11:30.992Z,13.10
2022-11-16T20:13:59.792Z,11.25
2022-11-16T20:16:37.024Z,11.05
2022-11-16T20:19:06.501Z,13.27
2022-11-16T20:21:37.145Z,12.27
2022-11-16T20:24:07.110Z,14.98
2022-11-16T20:26:38.104Z,11.02
2022-11-16T20:29:06.359Z,11.73
2022-11-16T20:31:34.770Z,12.20
2022-11-16T20:34:05.605Z,14.48
2022-11-16T20:36:34.104Z,11.93
2022-11-16T20:39:02.103Z,13.13
2022-11-16T20:41:31.717Z,11.50
2022-11-16T20:44:00.985Z,11.65
2022-11-16T20:46:30.997Z,15.43
2022-11-16T20:49:00.459Z,13.32
2022-11-16T20:51:29.183Z,12.77
2022-11-16T20:54:07.631Z,12.88
2022-11-16T20:56:35.671Z,10.48
2022-11-16T20:59:03.184Z,13.77
2022-11-16T21:01:32.861Z,9.80
2022-11-16T21:04:02.379Z,12.77
2022-11-16T21:06:29.567Z,11.45
2022-11-16T21:08:56.668Z,11.02
2022-11-16T21:11:27.073Z,9.88
2022-11-16T21:14:12.582Z,11.48
2022-11-16T21:16:39.514Z,9.18
2022-11-16T21:19:07.325Z,10.85
2022-11-16T21:21:34.604Z,9.00
2022-11-16T21:24:01.884Z,10.82
2022-11-16T21:26:30.824Z,9.20
2022-11-16T21:28:58.789Z,10.73
2022-11-16T21:31:28.338Z,9.48
2022-11-16T21:33:55.558Z,8.18
2022-11-16T21:36:24.459Z,9.82
2022-11-16T21:38:51.984Z,9.77
2022-11-16T21:41:20.522Z,10.32
2022-11-16T21:43:47.421Z,12.18
2022-11-16T21:46:21.871Z,12.35
2022-11-16T21:48:51.233Z,12.88
2022-11-16T21:51:20.158Z,13.32
2022-11-16T21:53:47.353Z,11.93
2022-11-16T21:56:16.773Z,12.02
2022-11-16T21:58:44.001Z,13.68
2022-11-16T22:01:12.259Z,13.70
2022-11-16T22:03:39.412Z,13.43
2022-11-16T22:06:26.301Z,12.40
2022-11-16T22:08:53.071Z,12.30
2022-11-16T22:11:22.217Z,13.52
2022-11-16T22:13:50.422Z,14.73
2022-11-16T22:16:19.711Z,15.98
2022-11-16T22:18:46.691Z,16.17
2022-11-16T22:21:13.625Z,18.23
2022-11-16T22:23:40.788Z,22.42
2022-11-16T22:26:11.127Z,18.38
2022-11-16T22:28:38.128Z,113.90
2022-11-16T22:31:22.789Z,53.10
2022-11-16T22:33:52.664Z,34.90
2022-11-16T22:36:19.420Z,19.08
2022-11-16T22:38:46.115Z,21.33
2022-11-16T22:41:12.789Z,20.08
2022-11-16T22:43:39.959Z,17.45
2022-11-16T22:46:06.930Z,18.67
2022-11-16T22:48:35.867Z,17.55
2022-11-16T22:51:24.216Z,18.88
2022-11-16T22:53:55.867Z,19.55
2022-11-16T22:56:23.034Z,18.17
2022-11-16T22:58:50.364Z,15.85
2022-11-16T23:01:17.910Z,17.27
2022-11-16T23:03:45.148Z,18.98
2022-11-16T23:06:12.460Z,18.50
2022-11-16T23:08:40.310Z,17.38
2022-11-16T23:11:32.040Z,18.35
2022-11-16T23:14:17.890Z,17.63
2022-11-16T23:16:45.431Z,17.90
2022-11-16T23:19:33.287Z,18.17
2022-11-16T23:22:18.643Z,17.40
2022-11-16T23:25:03.993Z,15.00
2022-11-16T23:27:45.043Z,16.63
2022-11-16T23:30:13.352Z,17.67
2022-11-16T23:32:41.161Z,17.50
2022-11-16T23:35:09.019Z,17.23
2022-11-16T23:37:52.690Z,20.58
2022-11-16T23:40:19.841Z,15.85
2022-11-16T23:43:05.192Z,16.92
2022-11-16T23:45:31.956Z,19.35
2022-11-16T23:47:58.760Z,18.45
2022-11-16T23:50:25.465Z,15.00
2022-11-16T23:52:52.194Z,15.55
2022-11-16T23:55:18.992Z,16.25
2022-11-16T23:57:45.667Z,15.00
